createdAt,value
2022-11-09T00:00:17.601Z,97979.53
2022-11-09T00:02:22.376Z,97979.69
2022-11-09T00:04:27.113Z,97983.13
2022-11-09T00:06:32.975Z,97980.59
2022-11-09T00:08:39.744Z,97978.22
2022-11-09T00:10:44.498Z,97981.03
2022-11-09T00:12:49.358Z,97982.97
2022-11-09T00:14:54.231Z,97986.66
2022-11-09T00:17:01.556Z,97977.22
2022-11-09T00:19:06.559Z,97980.66
2022-11-09T00:21:12.671Z,97971.31
2022-11-09T00:23:18.229Z,97974.91
2022-11-09T00:25:23.279Z,97971.53
2022-11-09T00:27:28.315Z,97961.13
2022-11-09T00:29:34.579Z,97955.22
2022-11-09T00:31:39.835Z,97952.66
2022-11-09T00:33:51.193Z,97954.38
2022-11-09T00:35:55.955Z,97941.47
2022-11-09T00:38:00.766Z,97938.19
2022-11-09T00:40:05.662Z,97940.94
2022-11-09T00:42:10.527Z,97954.94
2022-11-09T00:44:15.266Z,97955.94
2022-11-09T00:46:20.628Z,97952.44
2022-11-09T00:48:28.359Z,97965.59
2022-11-09T00:50:36.412Z,97972.63
2022-11-09T00:52:44.298Z,97971.69
2022-11-09T00:54:49.888Z,97975.19
2022-11-09T00:56:54.899Z,97977.78
2022-11-09T00:59:00.195Z,97974.94
2022-11-09T01:01:11.384Z,97970.41
2022-11-09T01:03:16.657Z,97973.91
2022-11-09T01:05:22.435Z,97965.22
2022-11-09T01:07:29.834Z,97964.53
2022-11-09T01:09:34.755Z,97970.56
2022-11-09T01:11:39.532Z,97969.81
2022-11-09T01:13:44.510Z,97967.41
2022-11-09T01:15:51.237Z,97967.41
2022-11-09T01:17:56.057Z,97955.94
2022-11-09T01:20:02.675Z,97953.97
2022-11-09T01:22:07.632Z,97964.38
2022-11-09T01:24:17.276Z,97961.63
2022-11-09T01:26:22.480Z,97957.19
2022-11-09T01:28:29.550Z,97958.13
2022-11-09T01:30:36.549Z,97945.16
2022-11-09T01:32:43.620Z,97950.47
2022-11-09T01:34:48.393Z,97956.34
2022-11-09T01:36:53.420Z,97939.78
2022-11-09T01:38:58.406Z,97943.19
2022-11-09T01:41:06.221Z,97941.13
2022-11-09T01:43:18.856Z,97945.13
2022-11-09T01:45:30.514Z,97936.16
2022-11-09T01:47:35.745Z,97933.41
2022-11-09T01:49:46.995Z,97932.38
2022-11-09T01:51:57.828Z,97932.16
2022-11-09T01:54:05.667Z,97930.50
2022-11-09T01:56:16.440Z,97936.53
2022-11-09T01:58:24.397Z,97934.94
2022-11-09T02:00:29.249Z,97937.53
2022-11-09T02:02:35.521Z,97936.59
2022-11-09T02:04:44.756Z,97931.38
2022-11-09T02:06:50.329Z,97935.75
2022-11-09T02:09:02.480Z,97938.31
2022-11-09T02:11:14.259Z,97934.09
2022-11-09T02:13:22.552Z,97930.72
2022-11-09T02:15:27.749Z,97928.25
2022-11-09T02:17:32.610Z,97930.09
2022-11-09T02:19:37.560Z,97929.25
2022-11-09T02:21:44.982Z,97927.41
2022-11-09T02:23:50.121Z,97926.63
2022-11-09T02:26:00.217Z,97927.72
2022-11-09T02:28:05.254Z,97922.50
2022-11-09T02:30:11.627Z,97928.72
2022-11-09T02:32:23.936Z,97924.13
2022-11-09T02:34:33.997Z,97934.69
2022-11-09T02:36:40.248Z,97936.38
2022-11-09T02:38:53.352Z,97939.75
2022-11-09T02:40:58.289Z,97937.91
2022-11-09T02:43:04.288Z,97930.03
2022-11-09T02:45:10.962Z,97928.03
2022-11-09T02:47:17.688Z,97924.34
2022-11-09T02:49:23.865Z,97929.34
2022-11-09T02:51:29.561Z,97931.69
2022-11-09T02:53:34.404Z,97927.25
2022-11-09T02:55:44.389Z,97924.50
2022-11-09T02:57:50.195Z,97923.56
2022-11-09T02:59:55.020Z,97922.56
2022-11-09T03:01:59.734Z,97920.59
2022-11-09T03:04:07.700Z,97931.63
2022-11-09T03:06:14.099Z,97935.84
2022-11-09T03:08:22.109Z,97933.13
2022-11-09T03:10:29.445Z,97934.81
2022-11-09T03:12:37.089Z,97937.19
2022-11-09T03:14:48.806Z,97944.88
2022-11-09T03:16:54.174Z,97946.63
2022-11-09T03:18:59.550Z,97944.09
2022-11-09T03:21:06.003Z,97938.19
2022-11-09T03:23:11.226Z,97939.03
2022-11-09T03:25:17.519Z,97933.81
2022-11-09T03:27:23.147Z,97933.06
2022-11-09T03:29:30.711Z,97940.91
2022-11-09T03:31:35.534Z,97944.19
2022-11-09T03:33:43.903Z,97943.19
2022-11-09T03:35:48.732Z,97948.25
2022-11-09T03:37:56.232Z,97943.19
2022-11-09T03:40:02.413Z,97945.69
2022-11-09T03:42:07.585Z,97944.69
2022-11-09T03:44:14.459Z,97951.31
2022-11-09T03:46:21.856Z,97965.94
2022-11-09T03:48:26.888Z,97971.00
2022-11-09T03:50:33.526Z,97971.84
2022-11-09T03:52:38.807Z,97956.25
2022-11-09T03:54:43.561Z,97957.09
2022-11-09T03:56:48.345Z,97965.94
2022-11-09T03:58:53.118Z,97987.03
2022-11-09T04:00:57.879Z,97981.72
2022-11-09T04:03:05.436Z,97992.94
2022-11-09T04:05:11.827Z,97988.56
2022-11-09T04:07:17.051Z,97993.53
2022-11-09T04:09:21.623Z,97984.88
2022-11-09T04:11:27.031Z,97989.88
2022-11-09T04:13:31.781Z,97994.19
2022-11-09T04:15:36.661Z,97995.88
2022-11-09T04:17:41.524Z,98001.91
2022-11-09T04:19:48.889Z,97990.66
2022-11-09T04:21:53.704Z,97976.00
2022-11-09T04:23:58.483Z,97974.22
2022-11-09T04:26:03.238Z,97968.94
2022-11-09T04:28:09.762Z,97965.50
2022-11-09T04:30:15.260Z,97973.31
2022-11-09T04:32:20.149Z,97954.91
2022-11-09T04:34:24.993Z,97962.72
2022-11-09T04:36:33.052Z,97960.88
2022-11-09T04:38:38.769Z,97955.59
2022-11-09T04:40:43.760Z,97960.81
2022-11-09T04:42:48.510Z,97969.41
2022-11-09T04:44:53.259Z,97973.91
2022-11-09T04:46:58.421Z,97973.00
2022-11-09T04:49:03.144Z,97980.72
2022-11-09T04:51:10.518Z,97984.28
2022-11-09T04:53:18.493Z,97985.13
2022-11-09T04:55:23.372Z,97985.78
2022-11-09T04:57:29.783Z,97989.94
2022-11-09T04:59:34.538Z,97981.94
2022-11-09T05:01:39.300Z,97980.78
2022-11-09T05:03:44.496Z,97980.53
2022-11-09T05:05:49.209Z,97984.13
2022-11-09T05:07:53.949Z,97993.75
2022-11-09T05:10:01.253Z,97997.97
2022-11-09T05:12:06.059Z,98005.63
2022-11-09T05:14:10.877Z,98016.16
2022-11-09T05:16:17.624Z,98013.63
2022-11-09T05:18:22.458Z,98024.06
2022-11-09T05:20:28.091Z,98027.50
2022-11-09T05:22:45.364Z,98027.50
2022-11-09T05:24:51.871Z,98021.53
2022-11-09T05:26:59.285Z,98026.75
2022-11-09T05:29:06.161Z,98028.50
2022-11-09T05:31:11.207Z,98018.31
2022-11-09T05:33:17.436Z,98020.09
2022-11-09T05:35:22.537Z,98024.38
2022-11-09T05:37:27.267Z,98023.44
2022-11-09T05:39:32.025Z,98032.13
2022-11-09T05:41:36.778Z,98033.88
2022-11-09T05:43:44.744Z,98023.44
2022-11-09T05:45:50.173Z,98043.41
2022-11-09T05:47:55.168Z,98051.31
2022-11-09T05:49:59.917Z,98044.47
2022-11-09T05:52:04.659Z,98055.00
2022-11-09T05:54:09.436Z,98060.38
2022-11-09T05:56:15.661Z,98065.59
2022-11-09T05:58:20.432Z,98065.59
2022-11-09T06:00:31.204Z,98075.09
2022-11-09T06:02:36.144Z,98071.50
2022-11-09T06:04:42.365Z,98062.91
2022-11-09T06:06:47.233Z,98054.31
2022-11-09T06:08:52.256Z,98062.22
2022-11-09T06:11:01.862Z,98066.75
2022-11-09T06:13:06.896Z,98080.16
2022-11-09T06:15:12.687Z,98075.22
2022-11-09T06:17:20.134Z,98081.59
2022-11-09T06:19:25.030Z,98100.94
2022-11-09T06:21:29.803Z,98106.38
2022-11-09T06:23:34.696Z,98099.38
2022-11-09T06:25:39.567Z,98102.00
2022-11-09T06:27:44.334Z,98095.94
2022-11-09T06:29:49.107Z,98093.41
2022-11-09T06:31:53.983Z,98106.47
2022-11-09T06:34:01.331Z,98097.84
2022-11-09T06:36:07.138Z,98104.16
2022-11-09T06:38:13.164Z,98101.66
2022-11-09T06:40:17.954Z,98116.56
2022-11-09T06:42:22.766Z,98108.16
2022-11-09T06:44:27.568Z,98111.06
2022-11-09T06:46:32.377Z,98107.00
2022-11-09T06:48:37.316Z,98111.50
2022-11-09T06:50:44.783Z,98121.09
2022-11-09T06:52:49.517Z,98122.16
2022-11-09T06:54:54.359Z,98130.00
2022-11-09T06:56:59.222Z,98128.91
2022-11-09T06:59:04.014Z,98127.94
2022-11-09T07:01:12.785Z,98128.06
2022-11-09T07:03:26.642Z,98136.81
2022-11-09T07:05:31.550Z,98135.91
2022-11-09T07:07:38.958Z,98136.88
2022-11-09T07:09:43.675Z,98141.16
2022-11-09T07:11:51.150Z,98146.47
2022-11-09T07:13:57.660Z,98143.06
2022-11-09T07:16:02.634Z,98140.63
2022-11-09T07:18:09.441Z,98150.19
2022-11-09T07:20:15.630Z,98140.06
2022-11-09T07:22:20.960Z,98143.84
2022-11-09T07:24:30.824Z,98146.25
2022-11-09T07:26:35.591Z,98147.09
2022-11-09T07:28:40.410Z,98155.97
2022-11-09T07:30:50.454Z,98155.00
2022-11-09T07:33:10.705Z,98151.53
2022-11-09T07:35:15.508Z,98154.22
2022-11-09T07:37:20.266Z,98168.09
2022-11-09T07:39:25.047Z,98169.72
2022-11-09T07:41:34.835Z,98166.03
2022-11-09T07:43:40.081Z,98165.84
2022-11-09T07:45:44.868Z,98158.00
2022-11-09T07:47:49.569Z,98164.25
2022-11-09T07:49:54.427Z,98164.34
2022-11-09T07:51:59.163Z,98159.06
2022-11-09T07:54:03.962Z,98149.66
2022-11-09T07:56:09.272Z,98162.72
2022-11-09T07:58:18.199Z,98155.75
2022-11-09T08:00:23.904Z,98154.84
2022-11-09T08:02:29.220Z,98162.69
2022-11-09T08:04:33.999Z,98157.47
2022-11-09T08:06:38.788Z,98161.88
2022-11-09T08:08:43.692Z,98159.84
2022-11-09T08:10:52.344Z,98159.06
2022-11-09T08:12:58.243Z,98167.00
2022-11-09T08:15:05.906Z,98174.00
2022-11-09T08:17:10.675Z,98178.50
2022-11-09T08:19:15.493Z,98177.53
2022-11-09T08:21:20.726Z,98173.44
2022-11-09T08:23:27.892Z,98179.81
2022-11-09T08:25:32.747Z,98180.81
2022-11-09T08:27:40.261Z,98185.16
2022-11-09T08:29:45.004Z,98185.03
2022-11-09T08:31:54.559Z,98188.50
2022-11-09T08:33:59.415Z,98191.66
2022-11-09T08:36:04.469Z,98191.19
2022-11-09T08:38:09.295Z,98192.09
2022-11-09T08:40:14.331Z,98185.97
2022-11-09T08:42:19.077Z,98192.03
2022-11-09T08:44:24.201Z,98195.34
2022-11-09T08:46:29.530Z,98194.50
2022-11-09T08:48:36.665Z,98196.81
2022-11-09T08:50:41.427Z,98193.91
2022-11-09T08:52:46.241Z,98202.28
2022-11-09T08:54:50.993Z,98200.31
2022-11-09T08:56:57.855Z,98193.19
2022-11-09T08:59:02.708Z,98186.00
2022-11-09T09:01:15.524Z,98189.47
2022-11-09T09:03:21.755Z,98192.72
2022-11-09T09:05:29.543Z,98192.41
2022-11-09T09:07:34.356Z,98188.03
2022-11-09T09:09:40.578Z,98191.56
2022-11-09T09:11:48.458Z,98194.13
2022-11-09T09:13:53.277Z,98199.41
2022-11-09T09:15:58.030Z,98211.34
2022-11-09T09:18:03.482Z,98215.38
2022-11-09T09:20:09.497Z,98240.91
2022-11-09T09:22:16.881Z,98247.81
2022-11-09T09:24:21.768Z,98245.13
2022-11-09T09:26:26.534Z,98244.13
2022-11-09T09:28:31.261Z,98247.19
2022-11-09T09:30:36.112Z,98252.88
2022-11-09T09:32:40.847Z,98252.47
2022-11-09T09:34:48.039Z,98247.72
2022-11-09T09:36:55.387Z,98242.94
2022-11-09T09:39:02.733Z,98232.94
2022-11-09T09:41:09.671Z,98241.16
2022-11-09T09:43:20.573Z,98238.19
2022-11-09T09:45:29.034Z,98230.81
2022-11-09T09:47:49.499Z,98224.22
2022-11-09T09:50:00.463Z,98210.31
2022-11-09T09:52:12.794Z,98205.09
2022-11-09T09:54:26.695Z,98197.53
2022-11-09T09:56:36.381Z,98194.03
2022-11-09T09:58:46.143Z,98195.81
2022-11-09T10:00:55.026Z,98190.59
2022-11-09T10:02:59.852Z,98191.44
2022-11-09T10:05:12.116Z,98183.69
2022-11-09T10:07:27.308Z,98172.00
2022-11-09T10:09:48.557Z,98175.34
2022-11-09T10:12:01.310Z,98172.41
2022-11-09T10:14:53.557Z,98176.94
2022-11-09T10:17:09.566Z,98187.16
2022-11-09T10:19:42.244Z,98189.06
2022-11-09T10:21:52.027Z,98193.81
2022-11-09T10:24:08.732Z,98186.59
2022-11-09T10:26:22.146Z,98207.31
2022-11-09T10:29:01.224Z,98200.25
2022-11-09T10:31:02.857Z,98183.56
2022-11-09T10:33:20.890Z,98170.22
2022-11-09T10:35:32.376Z,98154.53
2022-11-09T10:37:41.596Z,98158.66
2022-11-09T10:39:52.362Z,98162.63
2022-11-09T10:42:18.371Z,98158.59
2022-11-09T10:44:41.630Z,98148.81
2022-11-09T10:47:09.996Z,98142.34
2022-11-09T10:49:33.997Z,98162.22
2022-11-09T10:51:57.141Z,98162.81
2022-11-09T10:54:27.228Z,98151.16
2022-11-09T10:57:05.543Z,98156.28
2022-11-09T10:59:46.697Z,98153.44
2022-11-09T11:02:40.236Z,98147.53
2022-11-09T11:05:27.794Z,98142.97
2022-11-09T11:07:50.882Z,98141.13
2022-11-09T11:10:20.733Z,98136.47
2022-11-09T11:12:44.452Z,98133.44
2022-11-09T11:15:24.457Z,98119.25
2022-11-09T11:17:48.520Z,98120.94
2022-11-09T11:20:31.013Z,98128.09
2022-11-09T11:23:13.643Z,98124.19
2022-11-09T11:25:37.185Z,98125.13
2022-11-09T11:28:07.385Z,98112.44
2022-11-09T11:30:40.193Z,98114.59
2022-11-09T11:33:03.685Z,98109.22
2022-11-09T11:35:44.125Z,98104.19
2022-11-09T11:38:19.844Z,98101.03
2022-11-09T11:40:51.404Z,98103.19
2022-11-09T11:43:30.284Z,98103.78
2022-11-09T11:46:07.085Z,98107.34
2022-11-09T11:48:56.404Z,98106.38
2022-11-09T11:51:26.983Z,98121.06
2022-11-09T11:54:04.104Z,98131.22
2022-11-09T11:56:36.757Z,98125.06
2022-11-09T11:59:27.248Z,98114.50
2022-11-09T12:02:13.842Z,98113.47
2022-11-09T12:05:01.347Z,98102.94
2022-11-09T12:07:34.095Z,98097.84
2022-11-09T12:10:10.480Z,98096.81
2022-11-09T12:12:43.800Z,98083.91
2022-11-09T12:15:26.752Z,98082.38
2022-11-09T12:17:59.825Z,98082.88
2022-11-09T12:20:31.584Z,98082.69
2022-11-09T12:23:11.673Z,98078.72
2022-11-09T12:25:44.613Z,98080.50
2022-11-09T12:28:27.357Z,98076.75
2022-11-09T12:31:04.581Z,98071.09
2022-11-09T12:33:44.311Z,98073.66
2022-11-09T12:36:14.895Z,98073.00
2022-11-09T12:38:44.460Z,98062.03
2022-11-09T12:41:13.287Z,98059.81
2022-11-09T12:43:44.384Z,98062.63
2022-11-09T12:46:09.373Z,98071.91
2022-11-09T12:48:36.984Z,98069.38
2022-11-09T12:51:02.144Z,98072.00
2022-11-09T12:53:28.488Z,98080.53
2022-11-09T12:55:56.697Z,98073.31
2022-11-09T12:58:26.511Z,98074.50
2022-11-09T13:00:52.907Z,98067.13
2022-11-09T13:03:23.487Z,98070.28
2022-11-09T13:05:49.999Z,98076.81
2022-11-09T13:08:21.007Z,98078.03
2022-11-09T13:10:44.388Z,98063.75
2022-11-09T13:13:22.949Z,98058.03
2022-11-09T13:16:13.077Z,98065.50
2022-11-09T13:18:54.413Z,98053.03
2022-11-09T13:21:44.413Z,98060.41
2022-11-09T13:24:37.804Z,98061.03
2022-11-09T13:27:03.327Z,98063.66
2022-11-09T13:29:29.481Z,98062.84
2022-11-09T13:32:06.835Z,98058.72
2022-11-09T13:34:47.014Z,98059.47
2022-11-09T13:37:50.653Z,98061.25
2022-11-09T13:40:48.540Z,98069.19
2022-11-09T13:43:22.303Z,98066.69
2022-11-09T13:45:48.794Z,98073.59
2022-11-09T13:48:28.933Z,98078.78
2022-11-09T13:50:56.654Z,98082.31
2022-11-09T13:53:53.911Z,98075.41
2022-11-09T13:56:27.914Z,98082.72
2022-11-09T13:58:52.773Z,98085.53
2022-11-09T14:01:33.062Z,98088.28
2022-11-09T14:04:01.323Z,98090.22
2022-11-09T14:06:24.841Z,98095.59
2022-11-09T14:08:51.142Z,98093.91
2022-11-09T14:11:24.424Z,98090.94
2022-11-09T14:14:05.294Z,98090.09
2022-11-09T14:16:40.143Z,98101.44
2022-11-09T14:19:16.169Z,98094.41
2022-11-09T14:21:46.963Z,98101.63
2022-11-09T14:24:20.242Z,98108.09
2022-11-09T14:27:01.197Z,98109.13
2022-11-09T14:29:25.729Z,98111.09
2022-11-09T14:31:48.926Z,98105.03
2022-11-09T14:34:18.788Z,98105.84
2022-11-09T14:36:44.345Z,98109.41
2022-11-09T14:39:17.608Z,98110.34
2022-11-09T14:41:47.630Z,98116.22
2022-11-09T14:44:19.386Z,98118.78
2022-11-09T14:46:43.390Z,98115.31
2022-11-09T14:49:07.372Z,98121.47
2022-11-09T14:51:36.115Z,98118.66
2022-11-09T14:54:02.234Z,98121.41
2022-11-09T14:56:26.294Z,98126.72
2022-11-09T14:58:52.650Z,98123.25
2022-11-09T15:01:24.780Z,98127.66
2022-11-09T15:03:48.861Z,98121.59
2022-11-09T15:06:15.046Z,98122.50
2022-11-09T15:08:40.337Z,98134.41
2022-11-09T15:11:03.637Z,98145.66
2022-11-09T15:13:33.933Z,98144.81
2022-11-09T15:16:00.248Z,98151.72
2022-11-09T15:18:33.575Z,98150.31
2022-11-09T15:21:19.853Z,98159.97
2022-11-09T15:23:45.321Z,98147.91
2022-11-09T15:26:08.579Z,98154.91
2022-11-09T15:28:35.743Z,98155.88
2022-11-09T15:31:16.296Z,98162.03
2022-11-09T15:33:49.144Z,98159.59
2022-11-09T15:36:28.733Z,98159.50
2022-11-09T15:39:01.487Z,98156.88
2022-11-09T15:41:26.676Z,98158.84
2022-11-09T15:43:50.150Z,98160.63
2022-11-09T15:46:18.738Z,98160.63
2022-11-09T15:48:45.659Z,98171.13
2022-11-09T15:51:09.555Z,98167.63
2022-11-09T15:53:33.721Z,98170.44
2022-11-09T15:55:57.206Z,98165.19
2022-11-09T15:58:21.932Z,98172.16
2022-11-09T16:00:48.959Z,98171.28
2022-11-09T16:03:17.357Z,98170.63
2022-11-09T16:05:40.965Z,98170.81
2022-11-09T16:08:04.219Z,98175.22
2022-11-09T16:10:27.893Z,98175.22
2022-11-09T16:12:53.137Z,98177.84
2022-11-09T16:15:16.734Z,98178.78
2022-11-09T16:17:39.967Z,98185.63
2022-11-09T16:20:05.965Z,98189.06
2022-11-09T16:22:32.928Z,98183.84
2022-11-09T16:24:56.454Z,98194.31
2022-11-09T16:27:48.400Z,98200.47
2022-11-09T16:30:03.930Z,98209.34
2022-11-09T16:32:27.372Z,98208.50
2022-11-09T16:35:15.508Z,98200.75
2022-11-09T16:37:39.502Z,98212.91
2022-11-09T16:40:03.484Z,98208.69
2022-11-09T16:42:31.087Z,98215.72
2022-11-09T16:44:55.857Z,98219.31
2022-11-09T16:47:20.832Z,98224.56
2022-11-09T16:49:44.381Z,98228.97
2022-11-09T16:52:09.481Z,98220.34
2022-11-09T16:54:35.367Z,98221.28
2022-11-09T16:56:58.857Z,98229.13
2022-11-09T16:59:22.208Z,98222.94
2022-11-09T17:01:52.903Z,98232.53
2022-11-09T17:04:16.132Z,98234.38
2022-11-09T17:06:39.624Z,98230.91
2022-11-09T17:09:03.198Z,98235.41
2022-11-09T17:11:29.407Z,98238.78
2022-11-09T17:13:57.092Z,98246.88
2022-11-09T17:16:20.528Z,98245.09
2022-11-09T17:18:43.934Z,98248.59
2022-11-09T17:21:11.971Z,98248.41
2022-11-09T17:23:35.066Z,98255.41
2022-11-09T17:25:59.708Z,98249.31
2022-11-09T17:28:26.205Z,98259.81
2022-11-09T17:30:51.522Z,98262.78
2022-11-09T17:33:14.883Z,98254.16
2022-11-09T17:35:38.476Z,98253.31
2022-11-09T17:38:01.735Z,98264.56
2022-11-09T17:40:26.517Z,98261.94
2022-11-09T17:42:50.529Z,98265.50
2022-11-09T17:45:16.612Z,98282.06
2022-11-09T17:47:40.512Z,98275.28
2022-11-09T17:50:03.750Z,98282.22
2022-11-09T17:52:26.974Z,98290.94
2022-11-09T17:54:50.064Z,98290.09
2022-11-09T17:57:13.669Z,98291.75
2022-11-09T17:59:37.200Z,98291.88
2022-11-09T18:02:03.254Z,98302.25
2022-11-09T18:04:26.555Z,98297.09
2022-11-09T18:06:49.790Z,98303.06
2022-11-09T18:09:40.249Z,98310.09
2022-11-09T18:11:56.773Z,98313.72
2022-11-09T18:14:19.832Z,98314.84
2022-11-09T18:16:42.957Z,98319.31
2022-11-09T18:19:08.939Z,98330.63
2022-11-09T18:21:33.572Z,98324.66
2022-11-09T18:23:57.244Z,98328.19
2022-11-09T18:26:20.392Z,98332.56
2022-11-09T18:28:43.725Z,98335.31
2022-11-09T18:31:09.485Z,98337.81
2022-11-09T18:33:33.734Z,98345.78
2022-11-09T18:36:04.492Z,98340.53
2022-11-09T18:38:31.009Z,98346.00
2022-11-09T18:41:02.614Z,98349.47
2022-11-09T18:43:26.000Z,98345.25
2022-11-09T18:45:57.048Z,98355.66
2022-11-09T18:48:20.587Z,98356.56
2022-11-09T18:50:44.303Z,98359.16
2022-11-09T18:53:10.270Z,98362.06
2022-11-09T18:55:33.628Z,98374.38
2022-11-09T18:57:58.891Z,98378.00
2022-11-09T19:00:22.583Z,98380.00
2022-11-09T19:02:46.339Z,98385.63
2022-11-09T19:05:11.276Z,98387.13
2022-11-09T19:07:34.597Z,98379.78
2022-11-09T19:10:00.468Z,98382.31
2022-11-09T19:12:26.573Z,98384.84
2022-11-09T19:14:49.742Z,98382.16
2022-11-09T19:17:16.434Z,98391.47
2022-11-09T19:19:39.911Z,98384.19
2022-11-09T19:22:03.102Z,98383.91
2022-11-09T19:24:28.616Z,98387.03
2022-11-09T19:26:55.831Z,98384.06
2022-11-09T19:29:19.337Z,98386.53
2022-11-09T19:31:44.235Z,98389.81
2022-11-09T19:34:07.720Z,98385.34
2022-11-09T19:36:33.714Z,98384.41
2022-11-09T19:38:56.820Z,98389.81
2022-11-09T19:41:20.346Z,98394.16
2022-11-09T19:43:46.386Z,98391.25
2022-11-09T19:46:10.257Z,98389.47
2022-11-09T19:48:34.983Z,98388.47
2022-11-09T19:50:58.429Z,98392.03
2022-11-09T19:53:22.178Z,98394.72
2022-11-09T19:55:48.281Z,98405.19
2022-11-09T19:58:11.458Z,98408.91
2022-11-09T20:00:40.038Z,98408.91
2022-11-09T20:03:03.358Z,98411.59
2022-11-09T20:05:26.975Z,98412.63
2022-11-09T20:07:50.058Z,98408.31
2022-11-09T20:10:13.600Z,98416.16
2022-11-09T20:12:49.173Z,98422.22
2022-11-09T20:15:12.715Z,98416.16
2022-11-09T20:17:38.657Z,98423.09
2022-11-09T20:20:02.025Z,98422.22
2022-11-09T20:22:26.620Z,98426.56
2022-11-09T20:24:50.284Z,98428.25
2022-11-09T20:27:14.754Z,98429.25
2022-11-09T20:29:38.159Z,98430.09
2022-11-09T20:32:01.244Z,98432.69
2022-11-09T20:34:29.746Z,98431.84
2022-11-09T20:36:53.027Z,98434.81
2022-11-09T20:39:16.885Z,98441.81
2022-11-09T20:41:40.028Z,98442.81
2022-11-09T20:44:03.467Z,98442.91
2022-11-09T20:46:28.950Z,98443.81
2022-11-09T20:48:56.705Z,98455.22
2022-11-09T20:51:23.951Z,98451.06
2022-11-09T20:53:48.327Z,98455.44
2022-11-09T20:56:11.975Z,98463.47
2022-11-09T20:58:35.743Z,98462.69
2022-11-09T21:01:03.960Z,98466.41
2022-11-09T21:03:27.157Z,98466.50
2022-11-09T21:05:54.291Z,98475.19
2022-11-09T21:08:22.676Z,98477.78
2022-11-09T21:10:46.443Z,98481.78
2022-11-09T21:13:10.139Z,98485.41
2022-11-09T21:15:33.304Z,98488.16
2022-11-09T21:17:56.627Z,98490.63
2022-11-09T21:20:20.622Z,98493.25
2022-11-09T21:22:56.909Z,98495.66
2022-11-09T21:25:35.165Z,98496.63
2022-11-09T21:28:10.874Z,98496.69
2022-11-09T21:30:34.453Z,98499.25
2022-11-09T21:32:57.659Z,98502.56
2022-11-09T21:35:20.907Z,98511.16
2022-11-09T21:37:44.328Z,98523.72
2022-11-09T21:40:09.825Z,98525.69
2022-11-09T21:42:35.345Z,98526.94
2022-11-09T21:44:58.737Z,98529.50
2022-11-09T21:47:22.145Z,98533.00
2022-11-09T21:49:47.053Z,98534.72
2022-11-09T21:52:12.027Z,98534.56
2022-11-09T21:54:35.441Z,98530.84
2022-11-09T21:56:59.016Z,98532.66
2022-11-09T21:59:24.895Z,98533.50
2022-11-09T22:01:48.255Z,98538.53
2022-11-09T22:04:12.629Z,98541.28
2022-11-09T22:06:39.520Z,98537.00
2022-11-09T22:09:03.370Z,98541.44
2022-11-09T22:11:48.721Z,98540.94
2022-11-09T22:14:27.751Z,98544.88
2022-11-09T22:16:53.847Z,98541.44
2022-11-09T22:19:29.610Z,98542.72
2022-11-09T22:21:53.116Z,98553.94
2022-11-09T22:24:16.592Z,98555.81
2022-11-09T22:26:40.460Z,98553.31
2022-11-09T22:29:03.727Z,98551.47
2022-11-09T22:31:27.411Z,98558.88
2022-11-09T22:33:53.613Z,98554.28
2022-11-09T22:36:18.511Z,98563.81
2022-11-09T22:38:41.752Z,98555.03
2022-11-09T22:41:06.297Z,98542.66
2022-11-09T22:43:29.755Z,98551.28
2022-11-09T22:45:53.295Z,98553.06
2022-11-09T22:48:16.396Z,98556.47
2022-11-09T22:50:43.700Z,98551.09
2022-11-09T22:53:07.082Z,98559.63
2022-11-09T22:55:30.886Z,98568.41
2022-11-09T22:57:57.121Z,98563.16
2022-11-09T23:00:22.095Z,98565.78
2022-11-09T23:02:47.055Z,98567.63
2022-11-09T23:05:11.049Z,98570.22
2022-11-09T23:07:36.675Z,98573.03
2022-11-09T23:10:00.101Z,98582.09
2022-11-09T23:12:23.394Z,98583.16
2022-11-09T23:14:59.204Z,98592.75
2022-11-09T23:17:34.993Z,98595.31
2022-11-09T23:19:58.727Z,98600.53
2022-11-09T23:22:22.102Z,98606.47
2022-11-09T23:25:00.377Z,98608.53
2022-11-09T23:27:23.471Z,98622.78
2022-11-09T23:29:46.829Z,98622.50
2022-11-09T23:32:10.241Z,98623.94
2022-11-09T23:34:33.780Z,98634.41
2022-11-09T23:36:57.220Z,98644.28
2022-11-09T23:39:20.542Z,98650.81
2022-11-09T23:41:46.472Z,98653.63
2022-11-09T23:44:10.072Z,98655.53
2022-11-09T23:46:33.200Z,98648.31
2022-11-09T23:48:56.607Z,98643.91
2022-11-09T23:51:20.525Z,98643.84
2022-11-09T23:53:43.727Z,98650.09
2022-11-09T23:56:10.711Z,98653.69
2022-11-09T23:58:36.931Z,98660.66
